sensor_id;sensor_type;location;lat;lon;timestamp;pressure;altitude;pressure_sealevel;temperature;humidity
6393;BME280;3229;42.674;23.282;2024-03-25T00:01:45;93387.03;;;12.13;52.53
6393;BME280;3229;42.674;23.282;2024-03-25T00:04:11;93379.09;;;12.08;52.65
6393;BME280;3229;42.674;23.282;2024-03-25T00:06:39;93328.16;;;11.69;52.89
6393;BME280;3229;42.674;23.282;2024-03-25T00:09:04;93387.50;;;12.02;52.93
6393;BME280;3229;42.674;23.282;2024-03-25T00:11:33;93315.81;;;11.58;52.98
6393;BME280;3229;42.674;23.282;2024-03-25T00:13:59;93377.34;;;11.94;52.83
6393;BME280;3229;42.674;23.282;2024-03-25T00:16:25;93346.25;;;11.82;52.97
6393;BME280;3229;42.674;23.282;2024-03-25T00:18:51;93355.19;;;11.86;53.03
6393;BME280;3229;42.674;23.282;2024-03-25T00:21:18;93365.81;;;11.83;52.88
6393;BME280;3229;42.674;23.282;2024-03-25T00:23:45;93357.47;;;11.81;53.03
6393;BME280;3229;42.674;23.282;2024-03-25T00:26:12;93356.03;;;11.78;52.85
6393;BME280;3229;42.674;23.282;2024-03-25T00:28:38;93346.16;;;11.75;53.03
6393;BME280;3229;42.674;23.282;2024-03-25T00:31:05;93334.44;;;11.66;53.01
6393;BME280;3229;42.674;23.282;2024-03-25T00:33:30;93313.41;;;11.56;52.97
6393;BME280;3229;42.674;23.282;2024-03-25T00:35:58;93339.97;;;11.70;52.91
6393;BME280;3229;42.674;23.282;2024-03-25T00:38:24;93339.97;;;11.70;53.03
6393;BME280;3229;42.674;23.282;2024-03-25T00:40:52;93330.72;;;11.69;52.94
6393;BME280;3229;42.674;23.282;2024-03-25T00:43:17;93325.00;;;11.67;53.03
6393;BME280;3229;42.674;23.282;2024-03-25T00:45:45;93334.25;;;11.68;53.07
6393;BME280;3229;42.674;23.282;2024-03-25T00:48:11;93336.22;;;11.66;53.32
6393;BME280;3229;42.674;23.282;2024-03-25T00:50:37;93334.00;;;11.63;53.30
6393;BME280;3229;42.674;23.282;2024-03-25T00:53:03;93339.72;;;11.65;53.40
6393;BME280;3229;42.674;23.282;2024-03-25T00:55:30;93339.72;;;11.65;53.29
6393;BME280;3229;42.674;23.282;2024-03-25T00:57:57;93334.78;;;11.63;53.64
6393;BME280;3229;42.674;23.282;2024-03-25T01:00:24;93330.63;;;11.62;53.78
6393;BME280;3229;42.674;23.282;2024-03-25T01:02:50;93323.13;;;11.61;53.70
6393;BME280;3229;42.674;23.282;2024-03-25T01:05:17;93318.97;;;11.60;53.64
6393;BME280;3229;42.674;23.282;2024-03-25T01:07:43;93288.00;;;11.40;53.75
6393;BME280;3229;42.674;23.282;2024-03-25T01:10:10;93304.75;;;11.57;53.83
6393;BME280;3229;42.674;23.282;2024-03-25T01:12:36;93270.19;;;11.46;53.72
6393;BME280;3229;42.674;23.282;2024-03-25T01:15:05;93279.34;;;11.55;53.82
6393;BME280;3229;42.674;23.282;2024-03-25T01:17:31;93252.16;;;11.40;53.80
6393;BME280;3229;42.674;23.282;2024-03-25T01:19:57;93257.56;;;11.45;53.89
6393;BME280;3229;42.674;23.282;2024-03-25T01:22:23;93273.44;;;11.55;53.85
6393;BME280;3229;42.674;23.282;2024-03-25T01:24:50;93276.00;;;11.55;53.90
6393;BME280;3229;42.674;23.282;2024-03-25T01:27:16;93281.13;;;11.55;53.85
6393;BME280;3229;42.674;23.282;2024-03-25T01:29:42;93287.81;;;11.56;54.01
6393;BME280;3229;42.674;23.282;2024-03-25T01:32:09;93286.03;;;11.56;53.99
6393;BME280;3229;42.674;23.282;2024-03-25T01:34:36;93288.00;;;11.54;54.02
6393;BME280;3229;42.674;23.282;2024-03-25T01:37:02;93291.00;;;11.58;54.10
6393;BME280;3229;42.674;23.282;2024-03-25T01:39:29;93301.84;;;11.60;54.25
6393;BME280;3229;42.674;23.282;2024-03-25T01:41:54;93257.75;;;11.28;54.00
6393;BME280;3229;42.674;23.282;2024-03-25T01:44:21;93309.00;;;11.65;54.18
6393;BME280;3229;42.674;23.282;2024-03-25T01:46:47;93283.31;;;11.58;54.00
6393;BME280;3229;42.674;23.282;2024-03-25T01:49:15;93297.59;;;11.67;53.92
6393;BME280;3229;42.674;23.282;2024-03-25T01:51:41;93294.84;;;11.69;54.03
6393;BME280;3229;42.674;23.282;2024-03-25T01:54:08;93298.22;;;11.69;54.23
6393;BME280;3229;42.674;23.282;2024-03-25T01:56:35;93271.94;;;11.46;54.18
6393;BME280;3229;42.674;23.282;2024-03-25T01:59:03;93312.44;;;11.72;54.18
6393;BME280;3229;42.674;23.282;2024-03-25T02:01:29;93262.78;;;11.37;54.26
6393;BME280;3229;42.674;23.282;2024-03-25T02:03:56;93335.28;;;11.73;54.40
6393;BME280;3229;42.674;23.282;2024-03-25T02:06:27;93338.66;;;11.74;54.17
6393;BME280;3229;42.674;23.282;2024-03-25T02:08:55;93342.03;;;11.74;54.24
6393;BME280;3229;42.674;23.282;2024-03-25T02:11:22;93342.38;;;11.71;54.33
6393;BME280;3229;42.674;23.282;2024-03-25T02:13:50;93340.78;;;11.70;54.59
6393;BME280;3229;42.674;23.282;2024-03-25T02:16:16;93303.53;;;11.53;54.52
6393;BME280;3229;42.674;23.282;2024-03-25T02:18:42;93320.31;;;11.55;54.49
6393;BME280;3229;42.674;23.282;2024-03-25T02:21:08;93327.63;;;11.59;54.56
6393;BME280;3229;42.674;23.282;2024-03-25T02:23:39;93298.88;;;11.42;54.60
6393;BME280;3229;42.674;23.282;2024-03-25T02:26:06;93322.88;;;11.55;54.69
6393;BME280;3229;42.674;23.282;2024-03-25T02:28:32;93312.72;;;11.47;54.66
6393;BME280;3229;42.674;23.282;2024-03-25T02:30:58;93328.50;;;11.51;54.61
6393;BME280;3229;42.674;23.282;2024-03-25T02:33:25;93307.41;;;11.34;54.83
6393;BME280;3229;42.674;23.282;2024-03-25T02:35:51;93327.91;;;11.49;54.69
6393;BME280;3229;42.674;23.282;2024-03-25T02:38:18;93331.41;;;11.48;54.81
6393;BME280;3229;42.674;23.282;2024-03-25T02:40:44;93277.41;;;11.13;54.79
6393;BME280;3229;42.674;23.282;2024-03-25T02:43:13;93318.69;;;11.40;54.88
6393;BME280;3229;42.674;23.282;2024-03-25T02:45:39;93326.69;;;11.45;54.74
6393;BME280;3229;42.674;23.282;2024-03-25T02:48:06;93331.00;;;11.44;54.98
6393;BME280;3229;42.674;23.282;2024-03-25T02:50:32;93340.78;;;11.41;54.95
6393;BME280;3229;42.674;23.282;2024-03-25T02:52:58;93350.06;;;11.42;54.94
6393;BME280;3229;42.674;23.282;2024-03-25T02:55:24;93350.06;;;11.42;54.84
6393;BME280;3229;42.674;23.282;2024-03-25T02:57:51;93338.22;;;11.41;54.98
6393;BME280;3229;42.674;23.282;2024-03-25T03:00:18;93358.53;;;11.42;55.10
6393;BME280;3229;42.674;23.282;2024-03-25T03:02:45;93368.16;;;11.40;55.26
6393;BME280;3229;42.674;23.282;2024-03-25T03:05:11;93360.63;;;11.39;55.13
6393;BME280;3229;42.674;23.282;2024-03-25T03:07:37;93359.06;;;11.38;55.14
6393;BME280;3229;42.674;23.282;2024-03-25T03:10:03;93365.16;;;11.37;55.11
6393;BME280;3229;42.674;23.282;2024-03-25T03:12:30;93361.94;;;11.35;55.14
6393;BME280;3229;42.674;23.282;2024-03-25T03:14:56;93362.13;;;11.33;55.16
6393;BME280;3229;42.674;23.282;2024-03-25T03:17:24;93363.13;;;11.32;55.01
6393;BME280;3229;42.674;23.282;2024-03-25T03:19:50;93354.66;;;11.32;55.04
6393;BME280;3229;42.674;23.282;2024-03-25T03:22:17;93355.59;;;11.30;55.09
6393;BME280;3229;42.674;23.282;2024-03-25T03:24:42;93359.13;;;11.29;55.02
6393;BME280;3229;42.674;23.282;2024-03-25T03:27:09;93365.22;;;11.28;54.99
6393;BME280;3229;42.674;23.282;2024-03-25T03:29:35;93375.47;;;11.28;54.81
6393;BME280;3229;42.674;23.282;2024-03-25T03:32:01;93338.44;;;11.01;54.85
6393;BME280;3229;42.674;23.282;2024-03-25T03:34:29;93364.69;;;11.18;54.79
6393;BME280;3229;42.674;23.282;2024-03-25T03:36:56;93374.81;;;11.26;55.06
6393;BME280;3229;42.674;23.282;2024-03-25T03:39:21;93366.88;;;11.21;54.98
6393;BME280;3229;42.674;23.282;2024-03-25T03:41:48;93371.47;;;11.26;54.83
6393;BME280;3229;42.674;23.282;2024-03-25T03:44:14;93361.69;;;11.15;54.85
6393;BME280;3229;42.674;23.282;2024-03-25T03:46:41;93380.91;;;11.25;54.80
6393;BME280;3229;42.674;23.282;2024-03-25T03:49:07;93385.25;;;11.25;54.91
6393;BME280;3229;42.674;23.282;2024-03-25T03:51:35;93387.19;;;11.23;54.74
6393;BME280;3229;42.674;23.282;2024-03-25T03:54:01;93387.00;;;11.24;54.86
6393;BME280;3229;42.674;23.282;2024-03-25T03:56:27;93372.69;;;11.15;54.69
6393;BME280;3229;42.674;23.282;2024-03-25T03:58:53;93380.03;;;11.18;54.67
6393;BME280;3229;42.674;23.282;2024-03-25T04:01:20;93402.19;;;11.26;54.69
6393;BME280;3229;42.674;23.282;2024-03-25T04:03:45;93412.41;;;11.26;54.66
6393;BME280;3229;42.674;23.282;2024-03-25T04:06:13;93415.75;;;11.26;54.67
6393;BME280;3229;42.674;23.282;2024-03-25T04:08:40;93421.84;;;11.25;54.49
6393;BME280;3229;42.674;23.282;2024-03-25T04:11:07;93409.41;;;11.22;54.45
6393;BME280;3229;42.674;23.282;2024-03-25T04:13:33;93408.59;;;11.22;54.62
6393;BME280;3229;42.674;23.282;2024-03-25T04:16:01;93423.63;;;11.25;54.42
6393;BME280;3229;42.674;23.282;2024-03-25T04:18:28;93414.50;;;11.22;54.42
6393;BME280;3229;42.674;23.282;2024-03-25T04:20:54;93428.75;;;11.25;54.43
6393;BME280;3229;42.674;23.282;2024-03-25T04:23:20;93432.09;;;11.25;54.39
6393;BME280;3229;42.674;23.282;2024-03-25T04:25:48;93432.09;;;11.25;54.16
6393;BME280;3229;42.674;23.282;2024-03-25T04:28:14;93438.97;;;11.25;54.30
6393;BME280;3229;42.674;23.282;2024-03-25T04:30:41;93430.25;;;11.19;54.35
6393;BME280;3229;42.674;23.282;2024-03-25T04:33:08;93436.22;;;11.26;54.24
6393;BME280;3229;42.674;23.282;2024-03-25T04:35:34;93411.03;;;11.00;53.81
6393;BME280;3229;42.674;23.282;2024-03-25T04:38:00;93434.97;;;11.08;54.04
6393;BME280;3229;42.674;23.282;2024-03-25T04:40:26;93474.63;;;11.26;54.08
6393;BME280;3229;42.674;23.282;2024-03-25T04:42:56;93453.00;;;11.14;53.79
6393;BME280;3229;42.674;23.282;2024-03-25T04:45:22;93465.88;;;11.21;54.04
6393;BME280;3229;42.674;23.282;2024-03-25T04:47:47;93469.22;;;11.21;53.93
6393;BME280;3229;42.674;23.282;2024-03-25T04:50:13;93478.50;;;11.22;53.98
6393;BME280;3229;42.674;23.282;2024-03-25T04:52:39;93481.34;;;11.27;54.03
6393;BME280;3229;42.674;23.282;2024-03-25T04:55:05;93486.28;;;11.29;53.93
6393;BME280;3229;42.674;23.282;2024-03-25T04:57:31;93491.06;;;11.32;53.72
6393;BME280;3229;42.674;23.282;2024-03-25T04:59:58;93486.09;;;11.30;53.79
6393;BME280;3229;42.674;23.282;2024-03-25T05:02:24;93455.97;;;11.18;53.77
6393;BME280;3229;42.674;23.282;2024-03-25T05:04:50;93489.75;;;11.36;53.49
6393;BME280;3229;42.674;23.282;2024-03-25T05:07:15;93480.03;;;11.32;53.70
6393;BME280;3229;42.674;23.282;2024-03-25T05:09:41;93493.72;;;11.39;53.50
6393;BME280;3229;42.674;23.282;2024-03-25T05:12:07;93432.13;;;11.02;53.76
6393;BME280;3229;42.674;23.282;2024-03-25T05:14:33;93490.91;;;11.48;53.38
6393;BME280;3229;42.674;23.282;2024-03-25T05:17:00;93491.22;;;11.53;53.18
6393;BME280;3229;42.674;23.282;2024-03-25T05:19:26;93491.31;;;11.60;53.23
6393;BME280;3229;42.674;23.282;2024-03-25T05:21:52;93482.75;;;11.53;53.28
6393;BME280;3229;42.674;23.282;2024-03-25T05:24:18;93501.31;;;11.70;52.96
6393;BME280;3229;42.674;23.282;2024-03-25T05:26:43;93500.97;;;11.73;52.93
6393;BME280;3229;42.674;23.282;2024-03-25T05:29:09;93497.78;;;11.71;53.06
6393;BME280;3229;42.674;23.282;2024-03-25T05:31:35;93474.69;;;11.56;52.54
6393;BME280;3229;42.674;23.282;2024-03-25T05:34:02;93513.03;;;11.87;52.63
6393;BME280;3229;42.674;23.282;2024-03-25T05:36:28;93519.56;;;11.90;52.57
6393;BME280;3229;42.674;23.282;2024-03-25T05:38:54;93511.38;;;11.94;52.60
6393;BME280;3229;42.674;23.282;2024-03-25T05:41:20;93514.09;;;11.93;52.33
6393;BME280;3229;42.674;23.282;2024-03-25T05:43:45;93522.13;;;12.04;52.08
6393;BME280;3229;42.674;23.282;2024-03-25T05:46:11;93539.22;;;12.12;52.11
6393;BME280;3229;42.674;23.282;2024-03-25T05:48:38;93536.56;;;12.20;52.07
6393;BME280;3229;42.674;23.282;2024-03-25T05:51:06;93535.78;;;12.20;51.74
6393;BME280;3229;42.674;23.282;2024-03-25T05:53:32;93523.59;;;12.22;51.65
6393;BME280;3229;42.674;23.282;2024-03-25T05:55:58;93554.69;;;12.63;51.21
6393;BME280;3229;42.674;23.282;2024-03-25T05:58:24;93540.53;;;13.18;82.80
6393;BME280;3229;42.674;23.282;2024-03-25T06:00:49;93553.16;;;13.99;86.25
6393;BME280;3229;42.674;23.282;2024-03-25T06:03:15;93548.28;;;14.73;82.76
6393;BME280;3229;42.674;23.282;2024-03-25T06:05:41;93548.69;;;15.38;79.34
6393;BME280;3229;42.674;23.282;2024-03-25T06:08:09;93552.53;;;15.95;75.73
6393;BME280;3229;42.674;23.282;2024-03-25T06:10:36;93529.09;;;16.30;72.58
6393;BME280;3229;42.674;23.282;2024-03-25T06:13:02;93562.28;;;17.04;69.92
6393;BME280;3229;42.674;23.282;2024-03-25T06:15:27;93565.97;;;17.60;67.20
6393;BME280;3229;42.674;23.282;2024-03-25T06:17:53;93567.88;;;18.10;64.91
6393;BME280;3229;42.674;23.282;2024-03-25T06:20:19;93573.84;;;18.53;62.50
6393;BME280;3229;42.674;23.282;2024-03-25T06:22:46;93550.81;;;18.70;63.09
6393;BME280;3229;42.674;23.282;2024-03-25T06:25:13;93569.63;;;19.33;62.26
6393;BME280;3229;42.674;23.282;2024-03-25T06:27:39;93577.94;;;19.83;60.56
6393;BME280;3229;42.674;23.282;2024-03-25T06:30:06;93586.75;;;20.47;58.94
6393;BME280;3229;42.674;23.282;2024-03-25T06:32:50;93589.66;;;20.98;56.10
6393;BME280;3229;42.674;23.282;2024-03-25T06:35:34;93591.88;;;21.29;53.46
6393;BME280;3229;42.674;23.282;2024-03-25T06:38:00;93588.50;;;21.58;52.42
6393;BME280;3229;42.674;23.282;2024-03-25T06:40:27;93603.34;;;21.86;51.33
6393;BME280;3229;42.674;23.282;2024-03-25T06:42:53;93606.47;;;22.16;50.53
6393;BME280;3229;42.674;23.282;2024-03-25T06:45:19;93609.38;;;22.53;49.13
6393;BME280;3229;42.674;23.282;2024-03-25T06:47:44;93610.25;;;22.93;44.72
6393;BME280;3229;42.674;23.282;2024-03-25T06:50:10;93621.03;;;23.40;42.31
6393;BME280;3229;42.674;23.282;2024-03-25T06:52:36;93628.06;;;23.84;40.07
6393;BME280;3229;42.674;23.282;2024-03-25T06:55:02;93629.78;;;24.27;37.95
6393;BME280;3229;42.674;23.282;2024-03-25T06:57:29;93633.00;;;24.66;36.43
6393;BME280;3229;42.674;23.282;2024-03-25T06:59:55;93633.72;;;24.99;35.69
6393;BME280;3229;42.674;23.282;2024-03-25T07:02:21;93633.66;;;25.31;35.29
6393;BME280;3229;42.674;23.282;2024-03-25T07:04:47;93635.84;;;25.60;34.57
6393;BME280;3229;42.674;23.282;2024-03-25T07:07:12;93638.84;;;25.79;34.85
6393;BME280;3229;42.674;23.282;2024-03-25T07:09:38;93648.53;;;25.78;34.73
6393;BME280;3229;42.674;23.282;2024-03-25T07:12:04;93645.84;;;25.68;34.84
6393;BME280;3229;42.674;23.282;2024-03-25T07:14:32;93640.59;;;25.58;34.80
6393;BME280;3229;42.674;23.282;2024-03-25T07:16:58;93633.69;;;25.41;34.57
6393;BME280;3229;42.674;23.282;2024-03-25T07:19:23;93639.38;;;25.23;34.52
6393;BME280;3229;42.674;23.282;2024-03-25T07:21:49;93629.13;;;25.16;34.10
6393;BME280;3229;42.674;23.282;2024-03-25T07:24:15;93670.94;;;25.53;33.40
6393;BME280;3229;42.674;23.282;2024-03-25T07:26:41;93672.56;;;25.70;33.69
6393;BME280;3229;42.674;23.282;2024-03-25T07:29:07;93671.06;;;25.79;33.59
6393;BME280;3229;42.674;23.282;2024-03-25T07:31:34;93664.31;;;26.03;33.76
6393;BME280;3229;42.674;23.282;2024-03-25T07:34:00;93654.13;;;26.38;33.34
6393;BME280;3229;42.674;23.282;2024-03-25T07:36:26;93663.38;;;26.86;33.90
6393;BME280;3229;42.674;23.282;2024-03-25T07:38:51;93657.81;;;27.23;33.35
6393;BME280;3229;42.674;23.282;2024-03-25T07:41:17;93663.00;;;27.49;33.42
6393;BME280;3229;42.674;23.282;2024-03-25T07:43:43;93585.13;;;26.98;32.81
6393;BME280;3229;42.674;23.282;2024-03-25T07:46:09;93654.88;;;27.50;32.25
6393;BME280;3229;42.674;23.282;2024-03-25T07:48:36;93650.63;;;27.55;31.74
6393;BME280;3229;42.674;23.282;2024-03-25T07:51:02;93656.88;;;27.69;31.57
6393;BME280;3229;42.674;23.282;2024-03-25T07:53:28;93651.44;;;27.55;31.19
6393;BME280;3229;42.674;23.282;2024-03-25T07:55:54;93647.94;;;27.70;30.58
6393;BME280;3229;42.674;23.282;2024-03-25T07:58:20;93664.94;;;27.98;30.38
6393;BME280;3229;42.674;23.282;2024-03-25T08:00:46;93675.50;;;28.32;29.85
6393;BME280;3229;42.674;23.282;2024-03-25T08:03:11;93674.25;;;28.64;29.93
6393;BME280;3229;42.674;23.282;2024-03-25T08:05:38;93671.97;;;28.86;30.33
6393;BME280;3229;42.674;23.282;2024-03-25T08:08:05;93671.78;;;29.12;30.14
6393;BME280;3229;42.674;23.282;2024-03-25T08:10:31;93675.72;;;29.38;29.97
6393;BME280;3229;42.674;23.282;2024-03-25T08:12:57;93683.16;;;29.60;30.07
6393;BME280;3229;42.674;23.282;2024-03-25T08:15:23;93681.38;;;29.80;30.33
6393;BME280;3229;42.674;23.282;2024-03-25T08:17:49;93686.13;;;29.96;30.18
6393;BME280;3229;42.674;23.282;2024-03-25T08:20:14;93680.59;;;29.98;29.89
6393;BME280;3229;42.674;23.282;2024-03-25T08:22:42;93691.84;;;30.04;29.80
6393;BME280;3229;42.674;23.282;2024-03-25T08:25:08;93687.03;;;30.11;30.17
6393;BME280;3229;42.674;23.282;2024-03-25T08:27:33;93703.66;;;30.30;29.85
6393;BME280;3229;42.674;23.282;2024-03-25T08:29:59;93689.13;;;30.33;29.49
6393;BME280;3229;42.674;23.282;2024-03-25T08:32:25;93708.59;;;30.37;29.18
6393;BME280;3229;42.674;23.282;2024-03-25T08:34:51;93703.88;;;30.34;29.13
6393;BME280;3229;42.674;23.282;2024-03-25T08:37:16;93711.22;;;30.18;29.30
6393;BME280;3229;42.674;23.282;2024-03-25T08:39:44;93712.81;;;30.14;29.35
6393;BME280;3229;42.674;23.282;2024-03-25T08:42:10;93709.94;;;30.15;28.90
6393;BME280;3229;42.674;23.282;2024-03-25T08:44:35;93715.38;;;30.00;29.07
6393;BME280;3229;42.674;23.282;2024-03-25T08:47:01;93712.75;;;29.76;28.84
6393;BME280;3229;42.674;23.282;2024-03-25T08:49:27;93718.09;;;29.71;28.71
6393;BME280;3229;42.674;23.282;2024-03-25T08:51:53;93712.00;;;29.70;28.70
6393;BME280;3229;42.674;23.282;2024-03-25T08:54:18;93704.47;;;29.64;28.46
6393;BME280;3229;42.674;23.282;2024-03-25T08:56:45;93712.38;;;29.64;28.49
6393;BME280;3229;42.674;23.282;2024-03-25T08:59:11;93718.47;;;29.59;28.36
6393;BME280;3229;42.674;23.282;2024-03-25T09:01:37;93720.41;;;29.48;28.96
6393;BME280;3229;42.674;23.282;2024-03-25T09:04:03;93719.06;;;29.22;28.52
6393;BME280;3229;42.674;23.282;2024-03-25T09:06:29;93720.06;;;28.97;28.78
6393;BME280;3229;42.674;23.282;2024-03-25T09:08:55;93717.09;;;28.69;28.29
6393;BME280;3229;42.674;23.282;2024-03-25T09:11:39;93716.22;;;28.45;28.20
6393;BME280;3229;42.674;23.282;2024-03-25T09:14:06;93725.53;;;28.22;27.95
6393;BME280;3229;42.674;23.282;2024-03-25T09:16:32;93718.56;;;27.92;28.32
6393;BME280;3229;42.674;23.282;2024-03-25T09:18:57;93726.78;;;27.65;28.26
6393;BME280;3229;42.674;23.282;2024-03-25T09:21:23;93728.94;;;27.32;28.40
6393;BME280;3229;42.674;23.282;2024-03-25T09:23:49;93731.56;;;27.01;28.12
6393;BME280;3229;42.674;23.282;2024-03-25T09:26:15;93737.31;;;26.68;28.47
6393;BME280;3229;42.674;23.282;2024-03-25T09:28:41;93706.00;;;26.15;28.38
6393;BME280;3229;42.674;23.282;2024-03-25T09:31:08;93706.69;;;25.85;28.57
6393;BME280;3229;42.674;23.282;2024-03-25T09:33:34;93737.84;;;25.76;28.61
6393;BME280;3229;42.674;23.282;2024-03-25T09:36:00;93733.97;;;25.42;28.71
6393;BME280;3229;42.674;23.282;2024-03-25T09:38:26;93730.88;;;25.13;29.05
6393;BME280;3229;42.674;23.282;2024-03-25T09:40:53;93736.66;;;24.83;29.24
6393;BME280;3229;42.674;23.282;2024-03-25T09:43:24;93726.97;;;24.51;29.62
6393;BME280;3229;42.674;23.282;2024-03-25T09:45:51;93735.09;;;24.27;29.76
6393;BME280;3229;42.674;23.282;2024-03-25T09:48:21;93730.13;;;24.04;29.66
6393;BME280;3229;42.674;23.282;2024-03-25T09:50:47;93716.34;;;23.65;29.95
6393;BME280;3229;42.674;23.282;2024-03-25T09:53:14;93718.00;;;23.32;30.24
6393;BME280;3229;42.674;23.282;2024-03-25T09:55:40;93706.09;;;23.02;30.49
6393;BME280;3229;42.674;23.282;2024-03-25T09:58:06;93731.38;;;23.02;30.53
6393;BME280;3229;42.674;23.282;2024-03-25T10:00:32;93734.19;;;22.84;30.86
6393;BME280;3229;42.674;23.282;2024-03-25T10:02:58;93728.41;;;22.65;31.00
6393;BME280;3229;42.674;23.282;2024-03-25T10:05:26;93694.66;;;22.24;31.13
6393;BME280;3229;42.674;23.282;2024-03-25T10:07:51;93703.72;;;22.22;31.26
6393;BME280;3229;42.674;23.282;2024-03-25T10:10:19;93699.78;;;22.19;31.98
6393;BME280;3229;42.674;23.282;2024-03-25T10:12:45;93728.69;;;22.35;32.32
6393;BME280;3229;42.674;23.282;2024-03-25T10:15:15;93734.53;;;22.42;32.53
6393;BME280;3229;42.674;23.282;2024-03-25T10:17:41;93749.38;;;22.41;32.51
6393;BME280;3229;42.674;23.282;2024-03-25T10:20:13;93741.47;;;22.36;32.48
6393;BME280;3229;42.674;23.282;2024-03-25T10:22:42;93727.72;;;22.24;32.53
6393;BME280;3229;42.674;23.282;2024-03-25T10:25:19;93743.84;;;22.38;32.50
6393;BME280;3229;42.674;23.282;2024-03-25T10:27:53;93726.69;;;22.25;32.21
6393;BME280;3229;42.674;23.282;2024-03-25T10:30:19;93724.41;;;22.28;32.35
6393;BME280;3229;42.674;23.282;2024-03-25T10:32:45;93739.00;;;22.29;32.21
6393;BME280;3229;42.674;23.282;2024-03-25T10:35:11;93749.34;;;22.24;32.21
6393;BME280;3229;42.674;23.282;2024-03-25T10:37:38;93735.66;;;22.17;31.88
6393;BME280;3229;42.674;23.282;2024-03-25T10:40:07;93727.75;;;22.12;32.01
6393;BME280;3229;42.674;23.282;2024-03-25T10:42:38;93735.41;;;22.19;32.02
6393;BME280;3229;42.674;23.282;2024-03-25T10:45:06;93711.03;;;21.96;31.96
6393;BME280;3229;42.674;23.282;2024-03-25T10:47:34;93735.66;;;22.17;31.88
6393;BME280;3229;42.674;23.282;2024-03-25T10:50:03;93738.50;;;22.16;31.79
6393;BME280;3229;42.674;23.282;2024-03-25T10:52:33;93738.72;;;22.14;31.70
6393;BME280;3229;42.674;23.282;2024-03-25T10:55:00;93731.16;;;22.13;31.63
6393;BME280;3229;42.674;23.282;2024-03-25T10:57:28;93735.22;;;22.09;31.70
6393;BME280;3229;42.674;23.282;2024-03-25T10:59:55;93737.38;;;22.00;31.51
6393;BME280;3229;42.674;23.282;2024-03-25T11:02:21;93729.41;;;21.90;31.73
6393;BME280;3229;42.674;23.282;2024-03-25T11:04:47;93737.09;;;21.85;31.67
6393;BME280;3229;42.674;23.282;2024-03-25T11:07:15;93724.91;;;21.73;31.82
6393;BME280;3229;42.674;23.282;2024-03-25T11:09:42;93730.91;;;21.74;31.75
6393;BME280;3229;42.674;23.282;2024-03-25T11:12:10;93687.28;;;21.29;31.95
6393;BME280;3229;42.674;23.282;2024-03-25T11:14:38;93717.38;;;21.48;32.04
6393;BME280;3229;42.674;23.282;2024-03-25T11:17:14;93713.53;;;21.39;31.86
6393;BME280;3229;42.674;23.282;2024-03-25T11:19:40;93710.84;;;21.34;32.02
6393;BME280;3229;42.674;23.282;2024-03-25T11:22:08;93731.06;;;21.32;32.01
6393;BME280;3229;42.674;23.282;2024-03-25T11:24:35;93732.63;;;21.21;32.12
6393;BME280;3229;42.674;23.282;2024-03-25T11:27:01;93741.53;;;21.02;32.33
6393;BME280;3229;42.674;23.282;2024-03-25T11:29:27;93740.84;;;20.83;32.62
6393;BME280;3229;42.674;23.282;2024-03-25T11:31:55;93750.56;;;20.64;32.80
6393;BME280;3229;42.674;23.282;2024-03-25T11:34:23;93751.03;;;20.43;33.07
6393;BME280;3229;42.674;23.282;2024-03-25T11:36:49;93742.78;;;20.16;33.41
6393;BME280;3229;42.674;23.282;2024-03-25T11:39:16;93742.53;;;20.05;33.74
6393;BME280;3229;42.674;23.282;2024-03-25T11:41:42;93735.47;;;19.94;33.87
6393;BME280;3229;42.674;23.282;2024-03-25T11:44:09;93742.91;;;19.91;33.91
6393;BME280;3229;42.674;23.282;2024-03-25T11:46:36;93746.16;;;19.86;33.99
6393;BME280;3229;42.674;23.282;2024-03-25T11:49:04;93711.13;;;19.59;34.03
6393;BME280;3229;42.674;23.282;2024-03-25T11:51:31;93735.28;;;19.77;34.18
6393;BME280;3229;42.674;23.282;2024-03-25T11:53:57;93740.81;;;19.81;34.14
6393;BME280;3229;42.674;23.282;2024-03-25T11:56:23;93735.78;;;19.86;34.26
6393;BME280;3229;42.674;23.282;2024-03-25T11:58:49;93737.56;;;19.86;34.18
6393;BME280;3229;42.674;23.282;2024-03-25T12:01:14;93741.28;;;19.78;34.43
6393;BME280;3229;42.674;23.282;2024-03-25T12:03:40;93740.03;;;19.80;34.35
6393;BME280;3229;42.674;23.282;2024-03-25T12:06:08;93733.81;;;19.82;34.28
6393;BME280;3229;42.674;23.282;2024-03-25T12:08:33;93746.78;;;19.82;34.44
6393;BME280;3229;42.674;23.282;2024-03-25T12:10:59;93738.75;;;19.71;34.43
6393;BME280;3229;42.674;23.282;2024-03-25T12:13:44;93748.75;;;19.68;34.52
6393;BME280;3229;42.674;23.282;2024-03-25T12:16:10;93755.44;;;19.57;34.61
6393;BME280;3229;42.674;23.282;2024-03-25T12:18:36;93758.53;;;19.47;34.55
6393;BME280;3229;42.674;23.282;2024-03-25T12:21:04;93748.44;;;19.39;34.71
6393;BME280;3229;42.674;23.282;2024-03-25T12:23:32;93741.88;;;19.18;34.81
6393;BME280;3229;42.674;23.282;2024-03-25T12:25:59;93745.13;;;19.07;35.00
6393;BME280;3229;42.674;23.282;2024-03-25T12:28:25;93747.84;;;18.94;34.89
6393;BME280;3229;42.674;23.282;2024-03-25T12:30:52;93744.50;;;18.87;34.92
6393;BME280;3229;42.674;23.282;2024-03-25T12:33:18;93735.78;;;18.81;35.04
6393;BME280;3229;42.674;23.282;2024-03-25T12:35:45;93743.00;;;18.79;35.16
6393;BME280;3229;42.674;23.282;2024-03-25T12:38:22;93734.84;;;18.75;34.95
6393;BME280;3229;42.674;23.282;2024-03-25T12:40:50;93737.84;;;18.72;35.16
6393;BME280;3229;42.674;23.282;2024-03-25T12:43:16;93712.03;;;18.59;35.11
6393;BME280;3229;42.674;23.282;2024-03-25T12:45:42;93734.28;;;18.67;34.85
6393;BME280;3229;42.674;23.282;2024-03-25T12:48:08;93740.41;;;18.79;35.05
6393;BME280;3229;42.674;23.282;2024-03-25T12:50:34;93746.53;;;18.85;34.90
6393;BME280;3229;42.674;23.282;2024-03-25T12:53:00;93723.47;;;18.76;34.89
6393;BME280;3229;42.674;23.282;2024-03-25T12:55:26;93758.44;;;18.92;34.75
6393;BME280;3229;42.674;23.282;2024-03-25T12:57:53;93755.84;;;18.92;34.72
6393;BME280;3229;42.674;23.282;2024-03-25T13:00:19;93682.69;;;18.40;34.76
6393;BME280;3229;42.674;23.282;2024-03-25T13:02:44;93755.16;;;18.78;34.98
6393;BME280;3229;42.674;23.282;2024-03-25T13:05:10;93763.00;;;18.65;35.26
6393;BME280;3229;42.674;23.282;2024-03-25T13:07:36;93753.97;;;18.43;35.12